THY4ZT LTFE-LTFM
Flight info
| Callsign | THY4ZT |
|---|---|
| Flight time | 0h 49m |
| Altitude | 34000 |
| Route | AKBUK1V/28R AKBUK UN618 BERGO/N0455F360 UN618 DUGLA/N0454F370 UZ713 INBET |
| Aircraft | A21N/M-SDE2E3FGHIRWXY/LB1 |
Departure
| Time | 2026-05-05 17:45 |
|---|---|
| Airport | Milas Bodrum International Airport (LTFE) |
Arrival
| Time | 2026-05-05 18:34 |
|---|---|
| Airport | İstanbul Airport (LTFM) |
| Time | Latitude | Longitude | Altitude | Speed | Heading |
|---|---|---|---|---|---|
| 2026-05-05 17:10 | 37.24551 | 27.67101 | 27 ft | 0 kts | 197° |
| 2026-05-05 17:36 | 37.24552 | 27.67102 | 27 ft | 1 kts | 197° |
| 2026-05-05 17:36 | 37.24568 | 27.67108 | 27 ft | 3 kts | 193° |
| 2026-05-05 17:36 | 37.24588 | 27.67112 | 27 ft | 3 kts | 184° |
| 2026-05-05 17:36 | 37.24607 | 27.67112 | 27 ft | 3 kts | 169° |
| 2026-05-05 17:37 | 37.24625 | 27.67104 | 27 ft | 3 kts | 137° |
| 2026-05-05 17:37 | 37.24632 | 27.67092 | 27 ft | 1 kts | 106° |
| 2026-05-05 17:37 | 37.24632 | 27.67091 | 27 ft | 3 kts | 106° |
| 2026-05-05 17:40 | 37.24629 | 27.67103 | 27 ft | 4 kts | 106° |
| 2026-05-05 17:40 | 37.24614 | 27.67171 | 28 ft | 11 kts | 106° |
| 2026-05-05 17:40 | 37.24588 | 27.67280 | 28 ft | 14 kts | 107° |
| 2026-05-05 17:41 | 37.24557 | 27.67409 | 29 ft | 17 kts | 106° |
| 2026-05-05 17:41 | 37.24520 | 27.67559 | 29 ft | 19 kts | 106° |
| 2026-05-05 17:41 | 37.24480 | 27.67728 | 30 ft | 21 kts | 107° |
| 2026-05-05 17:41 | 37.24436 | 27.67913 | 30 ft | 14 kts | 106° |
| 2026-05-05 17:42 | 37.24438 | 27.68025 | 31 ft | 15 kts | 41° |
| 2026-05-05 17:42 | 37.24543 | 27.68076 | 30 ft | 17 kts | 26° |
| 2026-05-05 17:42 | 37.24664 | 27.68127 | 30 ft | 20 kts | 2° |
| 2026-05-05 17:42 | 37.24737 | 27.68073 | 31 ft | 9 kts | 289° |
| 2026-05-05 17:43 | 37.24757 | 27.68010 | 32 ft | 0 kts | 286° |
| 2026-05-05 17:44 | 37.24772 | 27.67946 | 32 ft | 33 kts | 286° |
| 2026-05-05 17:44 | 37.24919 | 27.67317 | 30 ft | 114 kts | 288° |
| 2026-05-05 17:44 | 37.25214 | 27.66116 | 90 ft | 163 kts | 287° |
| 2026-05-05 17:45 | 37.25481 | 27.64821 | 928 ft | 148 kts | 285° |
| 2026-05-05 17:45 | 37.25784 | 27.63516 | 1339 ft | 164 kts | 290° |
| 2026-05-05 17:45 | 37.26144 | 27.62096 | 1888 ft | 180 kts | 289° |
| 2026-05-05 17:45 | 37.26519 | 27.60548 | 2563 ft | 193 kts | 289° |
| 2026-05-05 17:46 | 37.26920 | 27.58866 | 3274 ft | 207 kts | 290° |
| 2026-05-05 17:46 | 37.27343 | 27.57091 | 3943 ft | 220 kts | 290° |
| 2026-05-05 17:46 | 37.27801 | 27.55176 | 4606 ft | 238 kts | 290° |
| 2026-05-05 17:46 | 37.28294 | 27.53114 | 5248 ft | 255 kts | 290° |
| 2026-05-05 17:47 | 37.28812 | 27.50929 | 6086 ft | 264 kts | 290° |
| 2026-05-05 17:47 | 37.29363 | 27.48716 | 7042 ft | 267 kts | 295° |
| 2026-05-05 17:47 | 37.30311 | 27.46737 | 8000 ft | 265 kts | 316° |
| 2026-05-05 17:47 | 37.31802 | 27.45418 | 8959 ft | 264 kts | 339° |
| 2026-05-05 17:48 | 37.33604 | 27.44948 | 9932 ft | 267 kts | 357° |
| 2026-05-05 17:48 | 37.35521 | 27.45038 | 10487 ft | 287 kts | 3° |
| 2026-05-05 17:48 | 37.37598 | 27.45227 | 10810 ft | 311 kts | 2° |
| 2026-05-05 17:48 | 37.39841 | 27.45407 | 11111 ft | 335 kts | 2° |
| 2026-05-05 17:49 | 37.42247 | 27.45577 | 11446 ft | 354 kts | 2° |
| 2026-05-05 17:49 | 37.44758 | 27.45741 | 12013 ft | 365 kts | 2° |
| 2026-05-05 17:49 | 37.47296 | 27.45894 | 12736 ft | 370 kts | 1° |
| 2026-05-05 17:49 | 37.49877 | 27.45724 | 13475 ft | 372 kts | 350° |
| 2026-05-05 17:50 | 37.52331 | 27.44794 | 14156 ft | 375 kts | 338° |
| 2026-05-05 17:50 | 37.54787 | 27.43676 | 14791 ft | 378 kts | 347° |
| 2026-05-05 17:50 | 37.57411 | 27.43289 | 15430 ft | 382 kts | 355° |
| 2026-05-05 17:50 | 37.60074 | 27.43060 | 16112 ft | 386 kts | 355° |
| 2026-05-05 17:51 | 37.62768 | 27.42818 | 16821 ft | 390 kts | 354° |
| 2026-05-05 17:51 | 37.65494 | 27.42553 | 17509 ft | 393 kts | 354° |
| 2026-05-05 17:51 | 37.68229 | 27.42274 | 18190 ft | 397 kts | 354° |
| 2026-05-05 17:51 | 37.70997 | 27.41980 | 18790 ft | 400 kts | 354° |
| 2026-05-05 17:52 | 37.73793 | 27.41685 | 19375 ft | 404 kts | 354° |
| 2026-05-05 17:52 | 37.76602 | 27.41390 | 19965 ft | 407 kts | 354° |
| 2026-05-05 17:52 | 37.79443 | 27.41094 | 20520 ft | 410 kts | 354° |
| 2026-05-05 17:52 | 37.82255 | 27.40798 | 21053 ft | 413 kts | 353° |
| 2026-05-05 17:53 | 37.85134 | 27.40492 | 21612 ft | 416 kts | 353° |
| 2026-05-05 17:53 | 37.88031 | 27.40185 | 22161 ft | 419 kts | 353° |
| 2026-05-05 17:53 | 37.90955 | 27.39869 | 22711 ft | 422 kts | 353° |
| 2026-05-05 17:53 | 37.93890 | 27.39549 | 23257 ft | 426 kts | 353° |
| 2026-05-05 17:54 | 37.96860 | 27.39229 | 23770 ft | 429 kts | 353° |
| 2026-05-05 17:54 | 37.99849 | 27.38909 | 24255 ft | 432 kts | 353° |
| 2026-05-05 17:54 | 38.02845 | 27.38586 | 24751 ft | 433 kts | 353° |
| 2026-05-05 17:54 | 38.05851 | 27.38267 | 25220 ft | 435 kts | 353° |
| 2026-05-05 17:55 | 38.08874 | 27.37942 | 25825 ft | 433 kts | 353° |
| 2026-05-05 17:55 | 38.11867 | 27.37620 | 26480 ft | 430 kts | 352° |
| 2026-05-05 17:55 | 38.14841 | 27.37302 | 27130 ft | 427 kts | 352° |
| 2026-05-05 17:55 | 38.17784 | 27.36984 | 27793 ft | 424 kts | 352° |
| 2026-05-05 17:56 | 38.20694 | 27.36670 | 28428 ft | 421 kts | 352° |
| 2026-05-05 17:56 | 38.23623 | 27.36356 | 29083 ft | 418 kts | 352° |
| 2026-05-05 17:56 | 38.26476 | 27.36051 | 29682 ft | 415 kts | 352° |
| 2026-05-05 17:56 | 38.29342 | 27.35743 | 30243 ft | 413 kts | 352° |
| 2026-05-05 17:57 | 38.32213 | 27.35429 | 30685 ft | 412 kts | 352° |
| 2026-05-05 17:57 | 38.35063 | 27.35117 | 31107 ft | 411 kts | 352° |
| 2026-05-05 17:57 | 38.37909 | 27.34809 | 31523 ft | 410 kts | 352° |
| 2026-05-05 17:57 | 38.39990 | 27.34581 | 31842 ft | 409 kts | 352° |
| 2026-05-05 17:58 | 38.42789 | 27.34275 | 32261 ft | 408 kts | 352° |
| 2026-05-05 17:58 | 38.45617 | 27.33967 | 32670 ft | 408 kts | 352° |
| 2026-05-05 17:58 | 38.48443 | 27.33657 | 33018 ft | 408 kts | 352° |
| 2026-05-05 17:58 | 38.51278 | 27.33349 | 33391 ft | 408 kts | 352° |
| 2026-05-05 17:59 | 38.54103 | 27.33046 | 33775 ft | 407 kts | 352° |
| 2026-05-05 17:59 | 38.56918 | 27.32741 | 34032 ft | 407 kts | 352° |
| 2026-05-05 17:59 | 38.59744 | 27.32435 | 34076 ft | 407 kts | 352° |
| 2026-05-05 18:00 | 38.64428 | 27.31920 | 34059 ft | 406 kts | 352° |
| 2026-05-05 18:00 | 38.71015 | 27.31203 | 34066 ft | 406 kts | 352° |
| 2026-05-05 18:01 | 38.76618 | 27.30591 | 34056 ft | 406 kts | 352° |
| 2026-05-05 18:01 | 38.82265 | 27.29965 | 34060 ft | 407 kts | 352° |
| 2026-05-05 18:02 | 38.87916 | 27.29349 | 34077 ft | 407 kts | 352° |
| 2026-05-05 18:02 | 38.93577 | 27.28724 | 34061 ft | 407 kts | 352° |
| 2026-05-05 18:03 | 38.99229 | 27.28107 | 34064 ft | 407 kts | 352° |
| 2026-05-05 18:03 | 39.04840 | 27.27488 | 34076 ft | 407 kts | 352° |
| 2026-05-05 18:04 | 39.10502 | 27.26862 | 34081 ft | 409 kts | 352° |
| 2026-05-05 18:04 | 39.16195 | 27.26230 | 34079 ft | 410 kts | 352° |
| 2026-05-05 18:05 | 39.21875 | 27.25599 | 34071 ft | 410 kts | 352° |
| 2026-05-05 18:05 | 39.27556 | 27.24956 | 34083 ft | 409 kts | 352° |
| 2026-05-05 18:06 | 39.33246 | 27.24326 | 34080 ft | 410 kts | 352° |
| 2026-05-05 18:06 | 39.38896 | 27.23703 | 34087 ft | 410 kts | 352° |
| 2026-05-05 18:07 | 39.44588 | 27.23063 | 34085 ft | 410 kts | 352° |
| 2026-05-05 18:07 | 39.50291 | 27.22450 | 34071 ft | 412 kts | 353° |
| 2026-05-05 18:08 | 39.56015 | 27.22057 | 34029 ft | 409 kts | 354° |
| 2026-05-05 18:08 | 39.58853 | 27.21869 | 33205 ft | 407 kts | 354° |
| 2026-05-05 18:08 | 39.61693 | 27.21677 | 32196 ft | 410 kts | 354° |
| 2026-05-05 18:08 | 39.64557 | 27.21489 | 31162 ft | 413 kts | 354° |
| 2026-05-05 18:09 | 39.66471 | 27.21361 | 30490 ft | 416 kts | 355° |
| 2026-05-05 18:09 | 39.70311 | 27.21107 | 28898 ft | 420 kts | 355° |
| 2026-05-05 18:09 | 39.73245 | 27.20914 | 27660 ft | 424 kts | 355° |
| 2026-05-05 18:09 | 39.76202 | 27.20718 | 26597 ft | 427 kts | 355° |
| 2026-05-05 18:10 | 39.78213 | 27.20583 | 26057 ft | 430 kts | 355° |
| 2026-05-05 18:10 | 39.81217 | 27.20387 | 25553 ft | 433 kts | 355° |
| 2026-05-05 18:10 | 39.84198 | 27.20191 | 25309 ft | 435 kts | 356° |
| 2026-05-05 18:10 | 39.87222 | 27.19989 | 25184 ft | 436 kts | 356° |
| 2026-05-05 18:11 | 39.90258 | 27.19785 | 25137 ft | 436 kts | 356° |
| 2026-05-05 18:11 | 39.93282 | 27.19584 | 25107 ft | 435 kts | 356° |
| 2026-05-05 18:11 | 39.96311 | 27.19412 | 25089 ft | 435 kts | 358° |
| 2026-05-05 18:11 | 39.99323 | 27.19736 | 25083 ft | 438 kts | 8° |
| 2026-05-05 18:12 | 40.02278 | 27.20754 | 25084 ft | 439 kts | 14° |
| 2026-05-05 18:12 | 40.05162 | 27.21976 | 24522 ft | 432 kts | 17° |
| 2026-05-05 18:12 | 40.07828 | 27.23828 | 23813 ft | 439 kts | 32° |
| 2026-05-05 18:12 | 40.10097 | 27.26517 | 23443 ft | 443 kts | 44° |
| 2026-05-05 18:13 | 40.12059 | 27.29632 | 23131 ft | 443 kts | 47° |
| 2026-05-05 18:13 | 40.13975 | 27.32760 | 22848 ft | 441 kts | 47° |
| 2026-05-05 18:13 | 40.15886 | 27.35888 | 22577 ft | 439 kts | 47° |
| 2026-05-05 18:13 | 40.17762 | 27.38953 | 22311 ft | 437 kts | 47° |
| 2026-05-05 18:14 | 40.19652 | 27.42020 | 22044 ft | 435 kts | 47° |
| 2026-05-05 18:14 | 40.21555 | 27.45084 | 21780 ft | 433 kts | 47° |
| 2026-05-05 18:14 | 40.23424 | 27.48102 | 21540 ft | 431 kts | 47° |
| 2026-05-05 18:14 | 40.25308 | 27.51153 | 21281 ft | 429 kts | 47° |
| 2026-05-05 18:15 | 40.27179 | 27.54195 | 21019 ft | 428 kts | 47° |
| 2026-05-05 18:15 | 40.29034 | 27.57233 | 20779 ft | 426 kts | 47° |
| 2026-05-05 18:15 | 40.30879 | 27.60258 | 20515 ft | 425 kts | 47° |
| 2026-05-05 18:15 | 40.32717 | 27.63255 | 20262 ft | 423 kts | 47° |
| 2026-05-05 18:16 | 40.34568 | 27.66258 | 20016 ft | 422 kts | 47° |
| 2026-05-05 18:16 | 40.36410 | 27.69257 | 19770 ft | 421 kts | 47° |
| 2026-05-05 18:16 | 40.38237 | 27.72243 | 19527 ft | 419 kts | 47° |
| 2026-05-05 18:16 | 40.40063 | 27.75217 | 19286 ft | 418 kts | 47° |
| 2026-05-05 18:17 | 40.41857 | 27.78151 | 19054 ft | 416 kts | 47° |
| 2026-05-05 18:17 | 40.43667 | 27.81113 | 18808 ft | 416 kts | 47° |
| 2026-05-05 18:17 | 40.45477 | 27.84086 | 18572 ft | 415 kts | 47° |
| 2026-05-05 18:17 | 40.47269 | 27.87031 | 18349 ft | 412 kts | 47° |
| 2026-05-05 18:18 | 40.49054 | 27.89972 | 18084 ft | 410 kts | 48° |
| 2026-05-05 18:18 | 40.50832 | 27.92894 | 17821 ft | 408 kts | 48° |
| 2026-05-05 18:18 | 40.52599 | 27.95805 | 17555 ft | 406 kts | 48° |
| 2026-05-05 18:18 | 40.54361 | 27.98705 | 17184 ft | 403 kts | 48° |
| 2026-05-05 18:19 | 40.56093 | 28.01560 | 16589 ft | 397 kts | 48° |
| 2026-05-05 18:19 | 40.57807 | 28.04392 | 15940 ft | 394 kts | 48° |
| 2026-05-05 18:19 | 40.59509 | 28.07208 | 15281 ft | 391 kts | 48° |
| 2026-05-05 18:19 | 40.61203 | 28.10008 | 14629 ft | 389 kts | 49° |
| 2026-05-05 18:20 | 40.62876 | 28.12780 | 14004 ft | 386 kts | 49° |
| 2026-05-05 18:20 | 40.64541 | 28.15548 | 13274 ft | 385 kts | 49° |
| 2026-05-05 18:20 | 40.66203 | 28.18304 | 12554 ft | 382 kts | 48° |
| 2026-05-05 18:20 | 40.67846 | 28.21034 | 11936 ft | 375 kts | 49° |
| 2026-05-05 18:21 | 40.69426 | 28.23671 | 11618 ft | 357 kts | 48° |
| 2026-05-05 18:21 | 40.70924 | 28.26164 | 11331 ft | 336 kts | 48° |
| 2026-05-05 18:21 | 40.72326 | 28.28497 | 10952 ft | 315 kts | 47° |
| 2026-05-05 18:21 | 40.73629 | 28.30670 | 10591 ft | 296 kts | 47° |
| 2026-05-05 18:22 | 40.74869 | 28.32743 | 10197 ft | 280 kts | 47° |
| 2026-05-05 18:22 | 40.76042 | 28.34701 | 9866 ft | 265 kts | 47° |
| 2026-05-05 18:22 | 40.77201 | 28.36626 | 9694 ft | 269 kts | 47° |
| 2026-05-05 18:22 | 40.78355 | 28.38556 | 9399 ft | 267 kts | 47° |
| 2026-05-05 18:23 | 40.79495 | 28.40473 | 9082 ft | 265 kts | 47° |
| 2026-05-05 18:23 | 40.80638 | 28.42385 | 8746 ft | 264 kts | 47° |
| 2026-05-05 18:23 | 40.81772 | 28.44279 | 8400 ft | 263 kts | 47° |
| 2026-05-05 18:23 | 40.82907 | 28.46173 | 8054 ft | 263 kts | 47° |
| 2026-05-05 18:24 | 40.84036 | 28.48066 | 7717 ft | 262 kts | 47° |
| 2026-05-05 18:24 | 40.85164 | 28.49953 | 7387 ft | 261 kts | 47° |
| 2026-05-05 18:24 | 40.86287 | 28.51839 | 7046 ft | 261 kts | 47° |
| 2026-05-05 18:24 | 40.87415 | 28.53727 | 6677 ft | 262 kts | 47° |
| 2026-05-05 18:25 | 40.88541 | 28.55616 | 6310 ft | 261 kts | 47° |
| 2026-05-05 18:25 | 40.89278 | 28.56856 | 6060 ft | 259 kts | 47° |
| 2026-05-05 18:25 | 40.90751 | 28.59339 | 5569 ft | 254 kts | 47° |
| 2026-05-05 18:25 | 40.91837 | 28.61177 | 5228 ft | 253 kts | 47° |
| 2026-05-05 18:26 | 40.92917 | 28.62993 | 4892 ft | 252 kts | 47° |
| 2026-05-05 18:26 | 40.93983 | 28.64780 | 4533 ft | 251 kts | 47° |
| 2026-05-05 18:26 | 40.95064 | 28.66596 | 4182 ft | 251 kts | 49° |
| 2026-05-05 18:26 | 40.96214 | 28.68296 | 3815 ft | 248 kts | 37° |
| 2026-05-05 18:27 | 40.97662 | 28.69532 | 3467 ft | 246 kts | 27° |
| 2026-05-05 18:27 | 40.99216 | 28.70452 | 3119 ft | 246 kts | 17° |
| 2026-05-05 18:27 | 41.00867 | 28.70978 | 2974 ft | 238 kts | 8° |
| 2026-05-05 18:27 | 41.02457 | 28.71183 | 2950 ft | 221 kts | 2° |
| 2026-05-05 18:28 | 41.05236 | 28.71185 | 3002 ft | 174 kts | 359° |
| 2026-05-05 18:28 | 41.06371 | 28.71162 | 2996 ft | 153 kts | 359° |
| 2026-05-05 18:28 | 41.07357 | 28.71143 | 2962 ft | 139 kts | 359° |
| 2026-05-05 18:29 | 41.08334 | 28.71122 | 2972 ft | 141 kts | 359° |
| 2026-05-05 18:29 | 41.09308 | 28.71102 | 2986 ft | 141 kts | 359° |
| 2026-05-05 18:29 | 41.10278 | 28.71082 | 2990 ft | 141 kts | 359° |
| 2026-05-05 18:29 | 41.11260 | 28.71062 | 2993 ft | 141 kts | 359° |
| 2026-05-05 18:30 | 41.12236 | 28.71041 | 2990 ft | 141 kts | 359° |
| 2026-05-05 18:30 | 41.13220 | 28.71021 | 2940 ft | 141 kts | 359° |
| 2026-05-05 18:30 | 41.14203 | 28.71001 | 2789 ft | 141 kts | 359° |
| 2026-05-05 18:30 | 41.15186 | 28.70980 | 2634 ft | 141 kts | 359° |
| 2026-05-05 18:31 | 41.16167 | 28.70960 | 2453 ft | 141 kts | 359° |
| 2026-05-05 18:31 | 41.17154 | 28.70939 | 2247 ft | 141 kts | 359° |
| 2026-05-05 18:31 | 41.18069 | 28.70921 | 2058 ft | 128 kts | 359° |
| 2026-05-05 18:31 | 41.18943 | 28.70902 | 1874 ft | 127 kts | 359° |
| 2026-05-05 18:32 | 41.19836 | 28.70884 | 1699 ft | 127 kts | 359° |
| 2026-05-05 18:32 | 41.20711 | 28.70866 | 1510 ft | 127 kts | 359° |
| 2026-05-05 18:32 | 41.21596 | 28.70847 | 1345 ft | 127 kts | 359° |
| 2026-05-05 18:32 | 41.22480 | 28.70829 | 1168 ft | 127 kts | 359° |
| 2026-05-05 18:33 | 41.23357 | 28.70810 | 994 ft | 127 kts | 359° |
| 2026-05-05 18:33 | 41.24250 | 28.70792 | 816 ft | 126 kts | 359° |
| 2026-05-05 18:33 | 41.25131 | 28.70773 | 654 ft | 127 kts | 359° |
| 2026-05-05 18:33 | 41.26017 | 28.70752 | 478 ft | 126 kts | 359° |
| 2026-05-05 18:34 | 41.26894 | 28.70727 | 353 ft | 124 kts | 360° |
| 2026-05-05 18:34 | 41.27682 | 28.70710 | 307 ft | 95 kts | 1° |
| 2026-05-05 18:34 | 41.28159 | 28.70713 | 297 ft | 50 kts | 353° |
| 2026-05-05 18:34 | 41.28491 | 28.70713 | 277 ft | 24 kts | 8° |
| 2026-05-05 18:35 | 41.28608 | 28.70768 | 273 ft | 19 kts | 38° |
| 2026-05-05 18:35 | 41.28723 | 28.70864 | 270 ft | 20 kts | 28° |
| 2026-05-05 18:35 | 41.28850 | 28.70957 | 264 ft | 22 kts | 30° |
| 2026-05-05 18:35 | 41.28986 | 28.71059 | 262 ft | 22 kts | 28° |
| 2026-05-05 18:36 | 41.28988 | 28.71171 | 263 ft | 19 kts | 169° |
| 2026-05-05 18:36 | 41.28843 | 28.71171 | 268 ft | 23 kts | 184° |
| 2026-05-05 18:36 | 41.28669 | 28.71171 | 275 ft | 27 kts | 178° |
| 2026-05-05 18:36 | 41.28475 | 28.71179 | 286 ft | 30 kts | 179° |
| 2026-05-05 18:37 | 41.28256 | 28.71181 | 292 ft | 31 kts | 180° |
| 2026-05-05 18:37 | 41.28058 | 28.71184 | 298 ft | 29 kts | 178° |
| 2026-05-05 18:37 | 41.27845 | 28.71192 | 305 ft | 32 kts | 178° |
| 2026-05-05 18:37 | 41.27613 | 28.71196 | 311 ft | 35 kts | 180° |
| 2026-05-05 18:38 | 41.27365 | 28.71201 | 317 ft | 37 kts | 178° |
| 2026-05-05 18:38 | 41.27126 | 28.71216 | 321 ft | 13 kts | 196° |
| 2026-05-05 18:38 | 41.27069 | 28.71223 | 324 ft | 11 kts | 184° |
| 2026-05-05 18:38 | 41.26982 | 28.71208 | 326 ft | 15 kts | 185° |
| 2026-05-05 18:39 | 41.26868 | 28.71205 | 326 ft | 18 kts | 179° |
| 2026-05-05 18:39 | 41.26738 | 28.71209 | 332 ft | 20 kts | 178° |
| 2026-05-05 18:39 | 41.26717 | 28.71216 | 332 ft | 5 kts | 145° |
| 2026-05-05 18:39 | 41.26701 | 28.71284 | 334 ft | 11 kts | 88° |
| 2026-05-05 18:40 | 41.26698 | 28.71395 | 331 ft | 13 kts | 89° |
| 2026-05-05 18:40 | 41.26701 | 28.71522 | 329 ft | 14 kts | 88° |
| 2026-05-05 18:40 | 41.26705 | 28.71659 | 326 ft | 16 kts | 89° |
| 2026-05-05 18:40 | 41.26706 | 28.71813 | 322 ft | 17 kts | 90° |
| 2026-05-05 18:41 | 41.26706 | 28.71982 | 317 ft | 19 kts | 90° |
| 2026-05-05 18:41 | 41.26708 | 28.72098 | 315 ft | 11 kts | 89° |
| 2026-05-05 18:41 | 41.26655 | 28.72171 | 315 ft | 14 kts | 170° |
| 2026-05-05 18:41 | 41.26548 | 28.72171 | 316 ft | 17 kts | 178° |
| 2026-05-05 18:42 | 41.26450 | 28.72177 | 317 ft | 14 kts | 178° |
| 2026-05-05 18:42 | 41.26341 | 28.72180 | 317 ft | 17 kts | 178° |
| 2026-05-05 18:42 | 41.26237 | 28.72187 | 316 ft | 14 kts | 158° |
| 2026-05-05 18:42 | 41.26200 | 28.72292 | 318 ft | 16 kts | 71° |
| 2026-05-05 18:43 | 41.26201 | 28.72449 | 319 ft | 19 kts | 89° |
| 2026-05-05 18:43 | 41.26215 | 28.72620 | 318 ft | 16 kts | 87° |
| 2026-05-05 18:43 | 41.26213 | 28.72780 | 320 ft | 19 kts | 90° |
| 2026-05-05 18:43 | 41.26216 | 28.72937 | 318 ft | 0 kts | 83° |
| 2026-05-05 18:44 | 41.26217 | 28.72947 | 318 ft | 2 kts | 83° |
| 2026-05-05 18:44 | 41.26221 | 28.72982 | 318 ft | 5 kts | 83° |
| 2026-05-05 18:44 | 41.26224 | 28.73044 | 318 ft | 8 kts | 94° |
| 2026-05-05 18:44 | 41.26217 | 28.73133 | 318 ft | 11 kts | 93° |
| 2026-05-05 18:45 | 41.26248 | 28.73233 | 318 ft | 14 kts | 15° |
| 2026-05-05 18:45 | 41.26355 | 28.73228 | 318 ft | 17 kts | 0° |
| 2026-05-05 18:45 | 41.26480 | 28.73229 | 318 ft | 19 kts | 359° |
| 2026-05-05 18:45 | 41.26621 | 28.73224 | 317 ft | 21 kts | 360° |
| 2026-05-05 18:46 | 41.26778 | 28.73224 | 318 ft | 24 kts | 359° |
| 2026-05-05 18:46 | 41.26929 | 28.73223 | 317 ft | 9 kts | 24° |
| 2026-05-05 18:46 | 41.26952 | 28.73300 | 317 ft | 12 kts | 83° |
| 2026-05-05 18:46 | 41.26961 | 28.73422 | 318 ft | 15 kts | 88° |
| 2026-05-05 18:47 | 41.26961 | 28.73573 | 318 ft | 17 kts | 90° |
| 2026-05-05 18:47 | 41.26961 | 28.73738 | 318 ft | 20 kts | 90° |
| 2026-05-05 18:47 | 41.26962 | 28.73932 | 318 ft | 22 kts | 90° |
| 2026-05-05 18:47 | 41.26963 | 28.74141 | 318 ft | 24 kts | 89° |